Caguas, PR (00725)

10:00 PM AST on August 03, 2015 (GMT -0400)
HSWHQ | | Change Station
CLOSE
Current Station
Personal Weather Station
Location: Caguas, CAGUAS
Elevation: 272 ft
Nearby Weather Stations

Elev 272 ft 18.22 °N, 66.04 °W | Updated 2 minutes ago

Scattered Clouds
Scattered Clouds
82.6 °F
Feels Like 90 °F
N
3.0
Wind Variable Wind from East
Gusts 6.0 mph

Today
High -- | Low -- °F
--% Chance of Precip.
Yesterday
High -- | Low -- °F
Precip. -- in
6:02 AM 6:57 PM
Waning Gibbous, 82% visible
Pressure 30.06 in
Visibility 10.0 miles
Clouds Few 2000 ft
Scattered Clouds 4100 ft
Heat Index 90 °F
Dew Point 76 °F
Humidity 79%
Rainfall 0.04 in
Snow Depth Not available.
UV 0 out of 12
Pollen Not available.
Air Quality Not available.
Flu Activity Not available.
METAR TJSJ 040156Z 09012KT 10SM FEW020 SCT041 28/26 A3006 RMK AO2 SLP178 T02830256

More Conditions Fewer Conditions

Pressure 30.06 in
Visibility 10.0 miles
Clouds Few 2000 ft
Scattered Clouds 4100 ft
Heat Index 90 °F
Dew Point 76 °F
Humidity 79%
Rainfall 0.04 in
Snow Depth Not available.
UV 0 out of 12
Pollen Not available.
Air Quality Not available.
Flu Activity Not available.
METAR TJSJ 040156Z 09012KT 10SM FEW020 SCT041 28/26 A3006 RMK AO2 SLP178 T02830256

More Conditions Fewer Conditions

10-Day Weather Forecast

×

Almanac

Astronomy

Aug. 03, 2015 Rise Set
Actual Time
Civil Twilight
Nautical Twilight
Astronomical Twilight
Moon
Length of Visible Light
Length of Day
Tomorrow will be .
, % of the Moon is Illuminated

Today's Extremes

State Highs State Lows

Community

WunderPhotos

Upload Photos

1,843,825 photos uploaded!

WunderBlogs® & News

Nearby

Air Quality

  Air Quality AQ Index Pollutant
Not available.

Snow Depth

Station Depth Elevation

Earthquake Activity

City Distance Mag. Time & Date
Minimum magnitude displayed is 2.5.

Coastal Water Temperatures

Place Temperature

Stations

Nearby Weather Stations

Station Location Temp. Windchill Dew Point Humidity Wind Precip. Elev Updated Type